Time;durP1;ratioP1;P1;durP2;ratioP2;P2;SDS_P1;SDS_P2;PMS_P1;PMS_P2;Temp;Humidity;BMP_temperature;BMP_pressure;BME280_temperature;BME280_humidity;BME280_pressure;Samples;Min_cycle;Max_cycle;Signal;HPM_P1;HPM_P2
2021/10/15 00:01:12;;;;;;;6.53;5.00;;;5.20;99.90;;;;;;4896947;29;20539;-75
2021/10/15 00:03:40;;;;;;;5.70;4.97;;;5.10;99.90;;;;;;4897079;29;20238;-75
2021/10/15 00:06:07;;;;;;;6.53;5.00;;;5.10;99.90;;;;;;4896381;29;20719;-75
2021/10/15 00:08:34;;;;;;;7.25;6.43;;;5.10;99.90;;;;;;4896811;29;20582;-75
2021/10/15 00:11:00;;;;;;;5.00;4.50;;;5.10;99.90;;;;;;4897109;29;20214;-75
2021/10/15 00:13:27;;;;;;;8.15;4.68;;;5.20;99.90;;;;;;4896819;29;20202;-75
2021/10/15 00:15:54;;;;;;;5.35;4.85;;;5.20;99.90;;;;;;4896396;29;20230;-74
2021/10/15 00:18:21;;;;;;;6.47;5.68;;;5.20;99.90;;;;;;4896656;29;20647;-75
2021/10/15 00:20:49;;;;;;;7.00;4.70;;;5.30;99.90;;;;;;4896994;29;20215;-75
2021/10/15 00:23:15;;;;;;;5.72;5.10;;;5.30;99.90;;;;;;4896394;29;20211;-75
2021/10/15 00:25:42;;;;;;;5.95;4.80;;;5.30;99.90;;;;;;4896186;29;20226;-75
2021/10/15 00:28:09;;;;;;;5.53;4.95;;;5.20;99.90;;;;;;4896477;29;20206;-75
2021/10/15 00:30:36;;;;;;;8.65;5.63;;;5.20;99.90;;;;;;4896649;29;20219;-75
2021/10/15 00:33:03;;;;;;;7.35;5.47;;;5.30;99.90;;;;;;4896838;29;20644;-75
2021/10/15 00:35:30;;;;;;;5.80;4.47;;;5.20;99.90;;;;;;4895823;29;20234;-75
2021/10/15 00:37:58;;;;;;;5.80;5.20;;;5.20;99.90;;;;;;4896367;29;20207;-75
2021/10/15 00:40:25;;;;;;;6.18;5.18;;;5.20;99.90;;;;;;4896302;29;20226;-75
2021/10/15 00:42:51;;;;;;;6.30;5.70;;;5.20;99.90;;;;;;4896546;29;20203;-75
2021/10/15 00:45:18;;;;;;;5.10;4.65;;;5.20;99.90;;;;;;4895606;29;20237;-75
2021/10/15 00:47:45;;;;;;;7.32;5.45;;;5.20;99.90;;;;;;4895793;29;20210;-75
2021/10/15 00:50:12;;;;;;;6.30;5.40;;;5.20;99.90;;;;;;4895980;29;20214;-74
2021/10/15 00:52:40;;;;;;;7.05;5.95;;;5.30;99.90;;;;;;4895916;29;20214;-74
2021/10/15 00:55:08;;;;;;;7.40;5.30;;;5.30;99.90;;;;;;4895153;29;20321;-75
2021/10/15 01:00:04;;;;;;;8.95;5.65;;;5.30;99.90;;;;;;4843323;29;20579;-72
2021/10/15 01:02:31;;;;;;;6.97;5.45;;;5.30;99.90;;;;;;4859010;29;20204;-71
2021/10/15 01:04:58;;;;;;;6.57;5.20;;;5.30;99.90;;;;;;4858949;29;20800;-70
2021/10/15 01:07:25;;;;;;;6.03;5.32;;;5.30;99.90;;;;;;4858858;29;20621;-72
2021/10/15 01:09:52;;;;;;;7.28;4.95;;;5.30;99.90;;;;;;4859083;29;20207;-71
2021/10/15 01:12:21;;;;;;;6.95;5.20;;;5.30;99.90;;;;;;4859420;29;20204;-72
2021/10/15 01:14:48;;;;;;;5.82;5.22;;;5.30;99.90;;;;;;4858766;29;20227;-72
2021/10/15 01:17:15;;;;;;;6.35;5.45;;;5.30;99.90;;;;;;4858722;29;20232;-72
2021/10/15 01:19:41;;;;;;;6.18;4.90;;;5.30;99.90;;;;;;4858897;29;20620;-72
2021/10/15 01:22:10;;;;;;;6.05;5.43;;;5.30;99.90;;;;;;4858498;29;20214;-72
2021/10/15 01:24:37;;;;;;;5.80;5.20;;;5.30;99.90;;;;;;4859033;29;20599;-72
2021/10/15 01:27:08;;;;;;;6.50;5.40;;;5.40;99.90;;;;;;4858422;29;20200;-73
2021/10/15 01:29:36;;;;;;;5.25;4.75;;;5.30;99.90;;;;;;4859078;29;20234;-72
2021/10/15 01:32:04;;;;;;;5.78;4.72;;;5.30;99.90;;;;;;4859085;29;20211;-72
2021/10/15 01:34:31;;;;;;;5.80;5.20;;;5.30;99.90;;;;;;4858653;29;20228;-72
2021/10/15 01:36:57;;;;;;;6.10;5.50;;;5.30;99.90;;;;;;4858163;29;20720;-72
2021/10/15 01:39:25;;;;;;;8.38;4.95;;;5.20;99.90;;;;;;4858767;29;20210;-72
2021/10/15 01:41:52;;;;;;;6.00;5.40;;;5.30;99.90;;;;;;4858846;29;20212;-72
2021/10/15 01:44:19;;;;;;;6.45;5.30;;;5.20;99.90;;;;;;4858355;29;20207;-73
2021/10/15 01:46:45;;;;;;;5.60;4.65;;;5.20;99.90;;;;;;4858220;29;20208;-72
2021/10/15 01:49:12;;;;;;;6.32;5.00;;;5.20;99.90;;;;;;4858458;29;20214;-72
2021/10/15 01:51:39;;;;;;;6.20;5.05;;;5.10;99.90;;;;;;4858725;29;20212;-72
2021/10/15 01:54:06;;;;;;;6.22;4.95;;;5.10;99.90;;;;;;4858404;29;20708;-72
2021/10/15 01:56:36;;;;;;;5.50;5.00;;;5.10;99.90;;;;;;4857978;29;20232;-72
2021/10/15 01:59:03;;;;;;;6.13;5.53;;;5.00;99.90;;;;;;4858504;29;20219;-71
2021/10/15 02:01:30;;;;;;;5.88;5.28;;;5.00;99.90;;;;;;4858488;29;20238;-72
2021/10/15 02:03:57;;;;;;;7.82;5.47;;;5.00;99.90;;;;;;4858578;29;20214;-72
2021/10/15 02:06:23;;;;;;;5.55;4.95;;;5.00;99.90;;;;;;4857650;29;20230;-72
2021/10/15 02:08:50;;;;;;;6.28;5.68;;;5.00;99.90;;;;;;4858511;29;20207;-72
2021/10/15 02:11:17;;;;;;;5.72;4.95;;;5.00;99.90;;;;;;4858208;29;20203;-72
2021/10/15 02:13:45;;;;;;;7.50;5.60;;;4.90;99.90;;;;;;4858383;29;20211;-72
2021/10/15 02:16:11;;;;;;;6.72;5.38;;;4.90;99.90;;;;;;4857478;29;20236;-72
2021/10/15 02:18:38;;;;;;;5.75;5.15;;;4.90;99.90;;;;;;4858288;29;20213;-72
2021/10/15 02:21:05;;;;;;;6.40;5.07;;;4.90;99.90;;;;;;4858297;29;20215;-72
2021/10/15 02:23:32;;;;;;;6.32;4.63;;;4.90;99.90;;;;;;4858006;29;20842;-72
2021/10/15 02:25:58;;;;;;;6.00;5.10;;;5.00;99.90;;;;;;4857674;29;20246;-72
2021/10/15 02:28:25;;;;;;;6.00;4.43;;;5.00;99.90;;;;;;4857940;29;20590;-72
2021/10/15 02:30:53;;;;;;;5.75;5.22;;;5.00;99.90;;;;;;4858319;29;20222;-72
2021/10/15 02:33:20;;;;;;;7.60;5.20;;;5.00;99.90;;;;;;4857938;29;20230;-71
2021/10/15 02:35:47;;;;;;;7.68;5.28;;;5.00;99.90;;;;;;4857642;29;20232;-72
2021/10/15 02:38:13;;;;;;;5.82;4.80;;;5.00;99.90;;;;;;4858038;29;20208;-72
2021/10/15 02:40:40;;;;;;;5.82;5.10;;;4.90;99.90;;;;;;4857917;29;20215;-72
2021/10/15 02:43:07;;;;;;;5.35;4.80;;;4.90;99.90;;;;;;4858104;29;20222;-72
2021/10/15 02:45:37;;;;;;;5.90;5.22;;;4.90;99.90;;;;;;4858096;29;20585;-72
2021/10/15 02:48:05;;;;;;;6.65;5.35;;;4.90;99.90;;;;;;4857647;29;20230;-72
2021/10/15 02:50:32;;;;;;;6.50;4.47;;;4.90;99.90;;;;;;4858136;29;20219;-72
2021/10/15 02:52:58;;;;;;;5.40;4.60;;;4.90;99.90;;;;;;4858226;29;20231;-72
2021/10/15 02:55:25;;;;;;;5.50;4.80;;;4.90;99.90;;;;;;4857807;29;20238;-72
2021/10/15 02:57:52;;;;;;;5.25;4.65;;;4.90;99.90;;;;;;4857312;29;20239;-71
2021/10/15 03:00:19;;;;;;;6.13;4.35;;;4.90;99.90;;;;;;4857939;29;20212;-72
2021/10/15 03:02:45;;;;;;;5.95;5.15;;;4.80;99.90;;;;;;4857965;29;20207;-71
2021/10/15 03:05:13;;;;;;;5.57;4.82;;;4.70;99.90;;;;;;4857829;29;20718;-72
2021/10/15 03:07:40;;;;;;;5.00;4.50;;;4.70;99.90;;;;;;4857336;29;20208;-72
2021/10/15 03:10:08;;;;;;;7.18;5.70;;;4.70;99.90;;;;;;4858007;29;20212;-72
2021/10/15 03:12:35;;;;;;;6.82;5.00;;;4.70;99.90;;;;;;4857941;29;20669;-73
2021/10/15 03:15:02;;;;;;;6.70;5.03;;;4.70;99.90;;;;;;4857765;29;20232;-71
2021/10/15 03:17:29;;;;;;;5.90;4.68;;;4.70;99.90;;;;;;4859209;29;20599;-71
2021/10/15 03:19:56;;;;;;;5.10;4.60;;;4.70;99.90;;;;;;4861076;29;20688;-71
2021/10/15 03:22:24;;;;;;;6.57;4.88;;;4.70;99.90;;;;;;4861094;29;20212;-72
2021/10/15 03:24:50;;;;;;;6.10;4.75;;;4.70;99.90;;;;;;4860978;29;20583;-71
2021/10/15 03:27:17;;;;;;;6.70;5.10;;;4.70;99.90;;;;;;4860474;29;20680;-71
2021/10/15 03:29:44;;;;;;;6.05;5.47;;;4.70;99.90;;;;;;4861100;29;20215;-71
2021/10/15 03:32:11;;;;;;;6.97;5.25;;;4.70;99.90;;;;;;4860098;29;20679;-72
2021/10/15 03:34:37;;;;;;;6.32;5.43;;;4.70;99.90;;;;;;4860158;29;20653;-71
2021/10/15 03:37:04;;;;;;;6.18;4.90;;;4.60;99.90;;;;;;4859361;29;20223;-72
2021/10/15 03:39:32;;;;;;;5.70;4.53;;;4.60;99.90;;;;;;4859981;29;20211;-71
2021/10/15 03:41:59;;;;;;;5.95;4.85;;;4.60;99.90;;;;;;4860838;29;20603;-71
2021/10/15 03:44:26;;;;;;;5.75;4.78;;;4.60;99.90;;;;;;4860690;29;20235;-71
2021/10/15 03:46:52;;;;;;;5.35;4.85;;;4.50;99.90;;;;;;4860557;29;20203;-71
2021/10/15 03:49:19;;;;;;;6.22;4.70;;;4.50;99.90;;;;;;4860711;29;20200;-72
2021/10/15 03:51:46;;;;;;;7.43;5.47;;;4.50;99.90;;;;;;4860498;29;20200;-71
2021/10/15 03:54:13;;;;;;;6.03;5.30;;;4.50;99.90;;;;;;4859546;29;20200;-72
2021/10/15 03:56:41;;;;;;;5.93;5.15;;;4.40;99.90;;;;;;4860390;29;20250;-71
2021/10/15 03:59:07;;;;;;;5.13;4.63;;;4.50;99.90;;;;;;4848038;29;20235;-71
2021/10/15 04:01:34;;;;;;;6.68;5.25;;;4.50;99.90;;;;;;4851894;29;20211;-71
2021/10/15 04:04:02;;;;;;;8.05;4.85;;;4.60;99.90;;;;;;4861921;29;20204;-71
2021/10/15 04:06:28;;;;;;;7.03;4.75;;;4.60;99.90;;;;;;4859546;29;20583;-71
2021/10/15 04:08:55;;;;;;;5.45;4.85;;;4.60;99.90;;;;;;4860221;29;20200;-71
2021/10/15 04:11:22;;;;;;;6.10;5.43;;;4.60;99.90;;;;;;4860040;29;20211;-71
2021/10/15 04:13:50;;;;;;;5.10;4.63;;;4.50;99.90;;;;;;4857665;29;20204;-71
2021/10/15 04:16:17;;;;;;;6.50;4.85;;;4.50;99.90;;;;;;4854875;29;20227;-71
2021/10/15 04:18:43;;;;;;;6.72;5.60;;;4.50;99.90;;;;;;4858689;29;20684;-71
2021/10/15 04:21:10;;;;;;;6.70;4.85;;;4.40;99.90;;;;;;4859171;29;20207;-71
2021/10/15 04:23:37;;;;;;;8.15;5.50;;;4.40;99.90;;;;;;4859426;29;20211;-71
2021/10/15 04:26:04;;;;;;;8.88;5.40;;;4.40;99.90;;;;;;4858244;29;20224;-71
2021/10/15 04:28:30;;;;;;;9.35;5.10;;;4.40;99.90;;;;;;4858569;29;20211;-71
2021/10/15 04:30:58;;;;;;;6.47;5.00;;;4.40;99.90;;;;;;4859604;29;20207;-70
2021/10/15 04:33:25;;;;;;;7.00;4.88;;;4.40;99.90;;;;;;4859357;29;20215;-71
2021/10/15 04:35:52;;;;;;;8.55;6.40;;;4.60;99.90;;;;;;4857628;29;20251;-70
2021/10/15 04:38:18;;;;;;;8.60;5.25;;;4.80;99.90;;;;;;4859223;29;20243;-70
2021/10/15 04:40:45;;;;;;;8.32;5.60;;;4.90;99.90;;;;;;4859793;29;20208;-71
2021/10/15 04:43:12;;;;;;;6.53;5.10;;;4.70;99.90;;;;;;4859045;29;20215;-71
2021/10/15 04:45:39;;;;;;;5.78;4.57;;;4.50;99.90;;;;;;4859494;29;20644;-71
2021/10/15 04:48:07;;;;;;;7.63;6.00;;;4.50;99.90;;;;;;4859383;29;20207;-71
2021/10/15 04:50:36;;;;;;;7.15;5.65;;;4.30;99.90;;;;;;4859178;29;20208;-70
2021/10/15 04:53:03;;;;;;;6.45;5.80;;;4.20;99.90;;;;;;4859397;29;20214;-71
2021/10/15 04:55:30;;;;;;;6.20;5.45;;;4.20;99.90;;;;;;4858787;29;20594;-71
2021/10/15 04:57:57;;;;;;;5.65;5.05;;;4.20;99.90;;;;;;4858926;29;20236;-70
2021/10/15 05:00:24;;;;;;;5.72;5.13;;;4.10;99.90;;;;;;4855722;29;20220;-70
2021/10/15 05:02:52;;;;;;;6.35;5.13;;;4.20;99.90;;;;;;4854157;29;20215;-70
2021/10/15 05:05:23;;;;;;;7.15;5.43;;;4.10;99.90;;;;;;4858918;29;20301;-70
2021/10/15 05:07:49;;;;;;;6.22;5.47;;;4.10;99.90;;;;;;4858379;29;20207;-70
2021/10/15 05:10:17;;;;;;;6.50;5.68;;;4.20;99.90;;;;;;4858976;29;20210;-71
2021/10/15 05:12:44;;;;;;;6.65;5.53;;;4.10;99.90;;;;;;4859149;29;20212;-71
2021/10/15 05:15:12;;;;;;;5.43;4.50;;;4.10;99.90;;;;;;4858267;29;20238;-70
2021/10/15 05:17:40;;;;;;;7.70;5.55;;;4.10;99.90;;;;;;4858366;29;20315;-71
2021/10/15 05:20:09;;;;;;;9.45;5.55;;;4.10;99.90;;;;;;4858456;29;20212;-70
2021/10/15 05:22:38;;;;;;;6.82;5.53;;;4.10;99.90;;;;;;4859283;29;20208;-70
2021/10/15 05:25:07;;;;;;;6.03;5.28;;;4.10;99.90;;;;;;4858887;29;20227;-71
2021/10/15 05:27:33;;;;;;;5.90;4.82;;;4.10;99.90;;;;;;4857950;29;20211;-70
2021/10/15 05:30:00;;;;;;;5.72;4.88;;;4.10;99.90;;;;;;4858386;29;20715;-70
2021/10/15 05:32:28;;;;;;;7.30;4.85;;;4.10;99.90;;;;;;4858428;29;20234;-70
2021/10/15 05:34:55;;;;;;;6.85;5.43;;;4.10;99.90;;;;;;4858793;29;20741;-70
2021/10/15 05:37:22;;;;;;;6.63;5.45;;;4.00;99.90;;;;;;4857824;29;20226;-71
2021/10/15 05:39:50;;;;;;;7.05;5.40;;;4.00;99.90;;;;;;4858145;29;20207;-70
2021/10/15 05:42:17;;;;;;;7.75;5.20;;;4.00;99.90;;;;;;4860195;29;20211;-71
2021/10/15 05:44:44;;;;;;;7.00;5.78;;;4.00;99.90;;;;;;4859362;29;20224;-71
2021/10/15 05:47:11;;;;;;;7.32;5.38;;;4.00;99.90;;;;;;4859357;29;20208;-71
2021/10/15 05:49:39;;;;;;;6.75;5.20;;;4.10;99.90;;;;;;4859740;29;20219;-71
2021/10/15 05:52:09;;;;;;;6.03;4.85;;;4.10;99.90;;;;;;4859059;29;20212;-71
2021/10/15 05:54:44;;;;;;;5.45;4.95;;;4.10;99.90;;;;;;4859224;29;20240;-71
2021/10/15 05:58:48;;;;;;;7.72;5.07;;;4.10;99.90;;;;;;4858140;29;20318;-71
2021/10/15 06:00:15;;;;;;;6.25;5.35;;;4.20;99.90;;;;;;4858325;29;20291;-71
2021/10/15 06:02:44;;;;;;;6.20;4.67;;;4.20;99.90;;;;;;4857444;29;20282;-70
2021/10/15 06:16:17;;;;;;;7.13;5.22;;;4.60;99.90;;;;;;4854682;29;20235;-70
2021/10/15 06:18:51;;;;;;;8.55;5.68;;;4.70;99.90;;;;;;4858348;29;20224;-71
2021/10/15 06:21:18;;;;;;;7.78;5.05;;;4.70;99.90;;;;;;4857945;29;20416;-71
2021/10/15 06:23:45;;;;;;;8.15;5.28;;;4.80;99.90;;;;;;4858691;29;20215;-70
2021/10/15 06:26:12;;;;;;;6.40;5.32;;;4.80;99.90;;;;;;4857332;29;20235;-70
2021/10/15 06:28:40;;;;;;;6.43;5.00;;;4.90;99.90;;;;;;4858091;29;20723;-70
2021/10/15 06:31:07;;;;;;;6.13;5.32;;;4.90;99.90;;;;;;4858343;29;20208;-70
2021/10/15 06:33:33;;;;;;;6.70;6.00;;;5.00;99.90;;;;;;4857888;29;20631;-70
2021/10/15 06:36:00;;;;;;;11.80;6.18;;;5.10;99.90;;;;;;4857609;29;20236;-71
2021/10/15 06:38:27;;;;;;;8.40;6.40;;;5.10;99.90;;;;;;4857297;29;20734;-70
2021/10/15 06:40:53;;;;;;;5.78;4.80;;;5.20;99.90;;;;;;4858185;29;20212;-70
2021/10/15 06:43:20;;;;;;;7.30;6.00;;;5.30;99.90;;;;;;4857644;29;20219;-70
2021/10/15 06:45:48;;;;;;;7.45;5.15;;;5.40;99.90;;;;;;4857302;29;20230;-71
2021/10/15 06:48:15;;;;;;;6.68;5.47;;;5.40;99.90;;;;;;4857772;29;20711;-71
2021/10/15 06:50:42;;;;;;;7.40;5.32;;;5.50;99.90;;;;;;4857818;29;20227;-70
2021/10/15 06:53:09;;;;;;;7.32;5.35;;;5.60;99.90;;;;;;4860964;29;20219;-70
2021/10/15 06:55:36;;;;;;;6.45;5.32;;;5.60;99.90;;;;;;4861415;29;20255;-70
2021/10/15 07:00:30;;;;;;;6.32;5.05;;;5.70;99.90;;;;;;4885558;23;20239;-91
2021/10/15 07:03:00;;;;;;;6.38;4.82;;;5.90;99.90;;;;;;4865194;29;20294;-90
2021/10/15 07:05:41;;;;;;;;;;;;;;;;;;;;;
2021/10/15 07:08:08;;;;;;;4.50;4.10;;;6.40;99.90;;;;;;4871832;29;20211;-94
2021/10/15 07:10:35;;;;;;;7.05;5.38;;;6.50;99.90;;;;;;4881940;29;20559;-94
2021/10/15 07:13:02;;;;;;;5.93;4.65;;;6.70;99.90;;;;;;4865408;29;20216;-94
2021/10/15 07:15:29;;;;;;;6.72;4.55;;;6.80;99.90;;;;;;4864827;29;20207;-92
2021/10/15 07:17:58;;;;;;;7.20;4.95;;;7.00;99.90;;;;;;4864577;29;20235;-91
2021/10/15 07:20:34;;;;;;;6.50;5.30;;;7.20;99.90;;;;;;4866098;29;20238;-92
2021/10/15 07:26:27;;;;;;;4.75;4.20;;;7.50;99.90;;;;;;4865247;29;20397;-92
2021/10/15 07:28:55;;;;;;;5.90;4.95;;;7.80;99.90;;;;;;4864900;29;20231;-91
2021/10/15 07:31:23;;;;;;;6.50;4.70;;;8.00;99.90;;;;;;4865033;29;20607;-91
2021/10/15 07:33:51;;;;;;;5.22;4.72;;;8.40;99.90;;;;;;4864620;29;20216;-91
2021/10/15 07:36:19;;;;;;;5.47;4.40;;;8.80;99.90;;;;;;4867487;29;20240;-92
2021/10/15 07:38:46;;;;;;;7.30;4.15;;;9.30;99.90;;;;;;4865484;29;20238;-91
2021/10/15 07:41:13;;;;;;;4.80;4.38;;;9.60;99.90;;;;;;4863845;29;20207;-92
2021/10/15 07:50:35;;;;;;;3.85;3.45;;;10.60;99.90;;;;;;4867173;23;20236;-75
2021/10/15 07:53:02;;;;;;;4.00;3.60;;;10.60;99.90;;;;;;4860303;29;20402;-75
2021/10/15 07:55:29;;;;;;;4.38;3.70;;;10.80;99.90;;;;;;4859964;29;20232;-75
2021/10/15 07:57:55;;;;;;;3.97;3.67;;;10.70;99.90;;;;;;4859824;29;20227;-74
2021/10/15 08:00:23;;;;;;;4.47;4.07;;;10.70;99.90;;;;;;4860139;29;20662;-75
2021/10/15 08:02:50;;;;;;;4.10;3.72;;;10.80;99.90;;;;;;4860122;29;20215;-76
2021/10/15 08:05:17;;;;;;;4.90;3.95;;;11.00;99.90;;;;;;4859610;29;20228;-76
2021/10/15 08:07:46;;;;;;;3.72;3.13;;;11.30;99.90;;;;;;4859445;29;20264;-76
2021/10/15 08:10:12;;;;;;;4.43;4.00;;;11.60;99.90;;;;;;4859862;29;20591;-76
2021/10/15 08:12:40;;;;;;;3.95;3.55;;;11.60;99.90;;;;;;4859781;29;20753;-75
2021/10/15 08:15:09;;;;;;;3.92;3.15;;;11.80;99.90;;;;;;4859990;29;20227;-75
2021/10/15 08:17:36;;;;;;;5.88;3.38;;;12.00;99.90;;;;;;4858942;29;20235;-76
2021/10/15 08:20:03;;;;;;;3.92;3.53;;;12.10;99.90;;;;;;4860063;29;20211;-75
2021/10/15 08:22:30;;;;;;;4.97;3.65;;;12.10;99.90;;;;;;4859447;29;20227;-76
2021/10/15 08:24:58;;;;;;;3.40;2.92;;;12.20;99.90;;;;;;4859733;29;20223;-76
2021/10/15 08:27:24;;;;;;;7.32;3.58;;;12.10;99.90;;;;;;4859145;29;20208;-77
2021/10/15 08:29:51;;;;;;;6.20;2.97;;;12.20;99.90;;;;;;4859625;29;20212;-76
2021/10/15 08:32:18;;;;;;;3.80;3.10;;;12.40;99.90;;;;;;4859653;29;20231;-76
2021/10/15 08:34:45;;;;;;;3.33;3.03;;;12.50;99.90;;;;;;4859384;29;20537;-76
2021/10/15 08:37:11;;;;;;;4.53;3.30;;;12.60;99.90;;;;;;4859403;29;20204;-76
2021/10/15 08:39:38;;;;;;;4.23;3.20;;;12.70;99.90;;;;;;4859330;29;20526;-76
2021/10/15 08:42:07;;;;;;;4.65;2.90;;;12.60;99.90;;;;;;4859281;29;20469;-76
2021/10/15 08:44:35;;;;;;;4.43;3.17;;;12.70;99.90;;;;;;4859190;29;20258;-76
2021/10/15 08:47:02;;;;;;;4.60;3.30;;;12.80;99.90;;;;;;4858775;29;20950;-77
2021/10/15 08:49:29;;;;;;;3.97;2.90;;;13.10;99.90;;;;;;4859143;29;20216;-76
2021/10/15 08:51:55;;;;;;;3.90;3.03;;;13.30;99.90;;;;;;4859390;29;20468;-76
2021/10/15 08:54:22;;;;;;;4.83;3.00;;;13.60;99.90;;;;;;4858833;29;20468;-77
2021/10/15 08:56:49;;;;;;;3.40;3.10;;;13.90;99.90;;;;;;4859004;29;20468;-76
2021/10/15 08:59:21;;;;;;;3.97;2.83;;;14.00;99.90;;;;;;4858977;29;20530;-76
2021/10/15 09:01:50;;;;;;;4.90;2.83;;;14.20;99.90;;;;;;4857174;29;20468;-75
2021/10/15 09:04:18;;;;;;;3.33;2.50;;;14.30;99.90;;;;;;4858772;29;20554;-77
2021/10/15 09:06:47;;;;;;;2.87;2.27;;;14.40;99.90;;;;;;4856300;29;20472;-76
2021/10/15 09:09:13;;;;;;;3.40;2.80;;;14.30;99.90;;;;;;4859079;29;20475;-76
2021/10/15 09:11:41;;;;;;;3.77;2.60;;;14.30;99.90;;;;;;4858939;29;20468;-76
2021/10/15 09:14:12;;;;;;;2.50;2.30;;;14.60;99.90;;;;;;4857965;29;20484;-76
2021/10/15 09:16:57;;;;;;;3.73;2.70;;;14.90;99.90;;;;;;4858451;29;20483;-76
2021/10/15 09:19:27;;;;;;;2.90;2.60;;;15.30;99.90;;;;;;4858419;29;20610;-76
2021/10/15 09:22:16;;;;;;;3.33;2.50;;;15.60;99.90;;;;;;4858684;29;20843;-75
2021/10/15 09:24:46;;;;;;;2.40;2.20;;;15.80;99.90;;;;;;4858772;29;20484;-77
2021/10/15 09:27:29;;;;;;;2.40;2.20;;;15.90;99.90;;;;;;4858202;29;20479;-75
2021/10/15 09:30:00;;;;;;;4.43;2.63;;;15.90;99.90;;;;;;4858512;29;20843;-76
2021/10/15 09:32:29;;;;;;;3.10;2.23;;;15.90;99.90;;;;;;4858570;29;20476;-76
2021/10/15 09:34:56;;;;;;;3.07;2.70;;;16.00;99.90;;;;;;4858320;29;20496;-75
2021/10/15 09:37:26;;;;;;;3.23;2.60;;;16.00;99.90;;;;;;4858086;29;20461;-76
2021/10/15 09:40:04;;;;;;;4.57;2.70;;;16.10;99.90;;;;;;4858499;29;21136;-76
2021/10/15 09:42:33;;;;;;;4.13;2.33;;;16.20;99.90;;;;;;4858754;29;20544;-75
2021/10/15 09:45:14;;;;;;;4.80;2.70;;;16.40;99.90;;;;;;4858901;29;20492;-76
2021/10/15 09:47:43;;;;;;;3.80;2.63;;;16.50;99.90;;;;;;4858860;29;20475;-76
2021/10/15 09:50:12;;;;;;;2.30;2.10;;;16.40;99.90;;;;;;4858312;29;20919;-77
2021/10/15 09:52:44;;;;;;;2.70;2.50;;;16.50;99.90;;;;;;4858372;29;20843;-76
2021/10/15 09:55:16;;;;;;;2.60;2.40;;;16.70;99.90;;;;;;4858237;29;20649;-76
2021/10/15 09:57:45;;;;;;;2.50;2.20;;;17.10;99.90;;;;;;4858241;29;20468;-78
2021/10/15 10:00:14;;;;;;;2.30;2.10;;;17.40;99.90;;;;;;4858425;29;20464;-76
2021/10/15 10:02:42;;;;;;;2.90;2.60;;;17.60;99.90;;;;;;4858898;29;20469;-76
2021/10/15 10:05:12;;;;;;;2.60;2.40;;;17.60;99.90;;;;;;4857896;29;20489;-77
2021/10/15 10:07:40;;;;;;;3.83;2.83;;;17.70;99.90;;;;;;4858232;29;20468;-77
2021/10/15 10:10:09;;;;;;;3.07;2.77;;;17.50;99.90;;;;;;4857900;29;20464;-76
2021/10/15 10:12:37;;;;;;;2.70;1.73;;;17.30;99.90;;;;;;4858790;29;20969;-76
2021/10/15 10:15:05;;;;;;;2.03;1.60;;;17.30;99.90;;;;;;4858367;29;20492;-75
2021/10/15 10:17:37;;;;;;;3.80;1.90;;;17.40;99.90;;;;;;4857055;29;20468;-76
2021/10/15 10:20:10;;;;;;;2.27;1.80;;;17.40;99.90;;;;;;4858143;29;20512;-76
2021/10/15 10:22:42;;;;;;;2.57;2.00;;;17.50;99.90;;;;;;4858509;29;20479;-76
2021/10/15 10:25:13;;;;;;;2.30;2.10;;;17.50;99.90;;;;;;4858065;29;20488;-76
2021/10/15 10:27:43;;;;;;;2.33;2.07;;;17.60;99.90;;;;;;4860363;29;20472;-76
2021/10/15 10:30:10;;;;;;;2.83;2.00;;;17.80;99.90;;;;;;4861762;29;20491;-76
2021/10/15 10:32:37;;;;;;;3.13;2.10;;;18.10;99.90;;;;;;4861904;29;20776;-75
2021/10/15 10:35:26;;;;;;;3.20;2.00;;;18.40;99.90;;;;;;4861504;29;20996;-76
2021/10/15 10:38:38;;;;;;;2.23;2.03;;;18.80;99.90;;;;;;4861547;29;20468;-75
2021/10/15 10:41:19;;;;;;;2.50;2.13;;;19.10;99.90;;;;;;4861817;29;20499;-76
2021/10/15 10:44:09;;;;;;;2.83;2.00;;;19.20;99.90;;;;;;4861871;29;20986;-76
2021/10/15 10:46:37;;;;;;;2.23;2.03;;;19.40;99.90;;;;;;4861201;29;20536;-75
2021/10/15 10:49:23;;;;;;;2.77;1.73;;;19.60;99.90;;;;;;4861850;29;20545;-76
2021/10/15 10:52:17;;;;;;;2.30;2.10;;;20.00;99.90;;;;;;4861807;29;20468;-77
2021/10/15 10:54:45;;;;;;;2.50;2.10;;;20.30;99.90;;;;;;4861877;29;20872;-76
2021/10/15 10:57:24;;;;;;;2.10;1.90;;;20.60;99.90;;;;;;4860867;29;20555;-76
2021/10/15 10:59:52;;;;;;;4.73;2.17;;;20.60;99.90;;;;;;4860832;29;20503;-76
2021/10/15 11:02:21;;;;;;;2.87;2.37;;;20.40;99.90;;;;;;4860830;29;20468;-76
2021/10/15 11:04:56;;;;;;;2.67;2.37;;;20.40;99.90;;;;;;4861170;29;20686;-76
2021/10/15 11:07:27;;;;;;;4.07;2.33;;;20.50;99.90;;;;;;4860473;29;20558;-76
2021/10/15 11:09:55;;;;;;;2.50;2.10;;;20.60;99.90;;;;;;4861657;29;20847;-76
2021/10/15 11:12:43;;;;;;;2.27;2.03;;;20.50;99.90;;;;;;4860914;29;20887;-76
2021/10/15 11:15:11;;;;;;;3.13;1.93;;;20.90;99.90;;;;;;4860054;29;20496;-76
2021/10/15 11:17:41;;;;;;;2.03;1.83;;;21.30;99.90;;;;;;4860314;29;20468;-77
2021/10/15 11:20:09;;;;;;;3.00;2.70;;;21.70;99.90;;;;;;4860940;29;20943;-76
2021/10/15 11:22:41;;;;;;;2.93;2.23;;;22.10;99.80;;;;;;4861199;29;20468;-75
2021/10/15 11:25:10;;;;;;;3.07;2.33;;;22.10;99.40;;;;;;4860084;29;20492;-76
2021/10/15 11:27:36;;;;;;;2.60;2.07;;;22.00;99.20;;;;;;4860841;29;20483;-76
2021/10/15 11:30:08;;;;;;;3.07;2.20;;;22.10;99.40;;;;;;4860714;29;20468;-76
2021/10/15 11:32:38;;;;;;;2.93;2.60;;;22.20;99.90;;;;;;4860611;29;20460;-76
2021/10/15 11:35:11;;;;;;;2.00;1.80;;;22.00;99.30;;;;;;4860369;29;20515;-77
2021/10/15 11:37:45;;;;;;;2.53;1.80;;;21.90;98.70;;;;;;4859968;29;20815;-76
2021/10/15 11:40:18;;;;;;;2.27;2.00;;;22.00;98.50;;;;;;4860513;29;20495;-77
2021/10/15 11:42:44;;;;;;;2.43;1.83;;;22.10;98.40;;;;;;4861615;29;20464;-76
2021/10/15 11:45:25;;;;;;;3.30;2.40;;;22.20;98.20;;;;;;4860807;29;20488;-76
2021/10/15 11:48:04;;;;;;;3.07;2.77;;;22.40;98.40;;;;;;4860161;29;20479;-77
2021/10/15 11:50:56;;;;;;;2.17;2.00;;;22.50;98.50;;;;;;4860377;29;20983;-77
2021/10/15 11:53:26;;;;;;;3.93;2.20;;;22.60;98.20;;;;;;4859847;29;20464;-77
2021/10/15 11:55:55;;;;;;;2.30;2.07;;;22.60;97.90;;;;;;4859858;29;20477;-77
2021/10/15 11:58:31;;;;;;;2.50;2.30;;;22.50;97.90;;;;;;4860308;29;20471;-77
2021/10/15 12:01:04;;;;;;;2.73;1.93;;;22.40;98.00;;;;;;4860098;29;20968;-76
2021/10/15 12:03:32;;;;;;;3.87;2.87;;;22.30;98.60;;;;;;4860193;29;20472;-77
2021/10/15 12:06:15;;;;;;;3.50;3.00;;;22.20;98.50;;;;;;4859813;29;20996;-76
2021/10/15 12:08:45;;;;;;;3.73;2.80;;;22.00;98.50;;;;;;4860334;29;20469;-76
2021/10/15 12:11:15;;;;;;;3.50;2.60;;;21.70;98.90;;;;;;4859646;29;20472;-78
2021/10/15 12:13:42;;;;;;;3.20;2.90;;;21.70;99.50;;;;;;4860087;29;20476;-77
2021/10/15 12:16:26;;;;;;;3.60;2.87;;;21.40;99.80;;;;;;4859596;29;20496;-77
2021/10/15 12:19:02;;;;;;;4.00;3.00;;;20.90;99.90;;;;;;4859688;29;20492;-77
2021/10/15 12:21:40;;;;;;;3.47;3.17;;;20.30;99.80;;;;;;4859761;29;20480;-77
2021/10/15 12:24:12;;;;;;;3.50;3.10;;;19.90;99.90;;;;;;4859351;29;20851;-76
2021/10/15 12:26:39;;;;;;;2.70;2.30;;;19.80;99.90;;;;;;4858374;29;21028;-77
2021/10/15 12:29:26;;;;;;;2.77;2.57;;;19.90;99.90;;;;;;4874374;29;20948;-77
2021/10/15 12:32:08;;;;;;;4.40;2.67;;;19.90;99.90;;;;;;4877879;29;20955;-76
2021/10/15 12:34:50;;;;;;;2.97;2.77;;;19.60;99.90;;;;;;4877719;29;20841;-76
2021/10/15 12:37:17;;;;;;;3.53;2.50;;;19.20;99.90;;;;;;4876945;29;20464;-77
2021/10/15 12:39:45;;;;;;;3.10;2.80;;;19.10;99.90;;;;;;4877330;29;20488;-76
2021/10/15 12:42:16;;;;;;;3.80;2.67;;;19.00;99.90;;;;;;4869876;29;20471;-77
2021/10/15 12:44:43;;;;;;;5.00;2.27;;;19.00;99.90;;;;;;4859208;29;20488;-77
2021/10/15 12:47:10;;;;;;;2.80;2.40;;;19.00;99.90;;;;;;4858823;29;20468;-77
2021/10/15 12:49:58;;;;;;;2.70;2.50;;;18.90;99.90;;;;;;4854924;29;20491;-76
2021/10/15 12:52:33;;;;;;;4.00;2.63;;;18.70;99.90;;;;;;4857151;29;20477;-76
2021/10/15 12:55:13;;;;;;;3.50;2.67;;;18.40;99.90;;;;;;4858364;29;20567;-76
2021/10/15 12:57:40;;;;;;;3.07;2.73;;;18.00;99.90;;;;;;4858109;29;20778;-76
2021/10/15 13:00:10;;;;;;;2.50;2.30;;;17.70;99.90;;;;;;4858093;29;20962;-76
2021/10/15 13:02:38;;;;;;;3.40;3.10;;;17.40;99.90;;;;;;4857712;29;20481;-77
2021/10/15 13:05:07;;;;;;;3.23;2.40;;;17.20;99.90;;;;;;4856069;29;21000;-76
2021/10/15 13:07:35;;;;;;;3.60;2.73;;;17.20;99.90;;;;;;4856671;29;20866;-75
2021/10/15 13:10:15;;;;;;;3.60;2.73;;;17.20;99.90;;;;;;4857797;29;20468;-76
2021/10/15 13:12:43;;;;;;;3.17;2.90;;;17.30;99.90;;;;;;4857626;29;20984;-74
2021/10/15 13:15:11;;;;;;;5.77;3.40;;;17.20;99.90;;;;;;4857360;29;20504;-74
2021/10/15 13:17:39;;;;;;;4.80;3.63;;;17.00;99.90;;;;;;4857487;29;20905;-73
2021/10/15 13:20:08;;;;;;;3.47;2.97;;;16.80;99.90;;;;;;4857006;29;20496;-74
2021/10/15 13:22:36;;;;;;;3.60;3.30;;;16.60;99.90;;;;;;4857784;29;20468;-74
2021/10/15 13:25:05;;;;;;;5.77;3.50;;;16.40;99.90;;;;;;4857008;29;21028;-73
2021/10/15 13:27:34;;;;;;;3.93;3.30;;;16.30;99.90;;;;;;4857069;29;20472;-74
2021/10/15 13:30:02;;;;;;;3.70;3.37;;;16.10;99.90;;;;;;4857849;29;20464;-74